createdAt,value
2018-11-13T00:01:39.714Z,7.72
2018-11-13T00:04:07.761Z,7.92
2018-11-13T00:06:37.147Z,7.60
2018-11-13T00:09:08.515Z,8.38
2018-11-13T00:11:37.224Z,8.38
2018-11-13T00:14:05.776Z,7.65
2018-11-13T00:16:34.496Z,8.35
2018-11-13T00:19:02.212Z,8.30
2018-11-13T00:21:31.407Z,8.55
2018-11-13T00:24:00.068Z,7.25
2018-11-13T00:26:27.504Z,8.13
2018-11-13T00:28:56.102Z,8.23
2018-11-13T00:31:23.295Z,7.73
2018-11-13T00:33:51.223Z,8.47
2018-11-13T00:36:18.927Z,7.25
2018-11-13T00:38:52.270Z,7.67
2018-11-13T00:41:20.461Z,8.00
2018-11-13T00:43:47.814Z,7.60
2018-11-13T00:46:14.896Z,6.83
2018-11-13T00:48:43.611Z,7.92
2018-11-13T00:51:12.015Z,7.25
2018-11-13T00:53:39.291Z,7.65
2018-11-13T00:56:10.523Z,7.42
2018-11-13T00:58:38.107Z,8.05
2018-11-13T01:01:06.260Z,6.10
2018-11-13T01:03:33.531Z,7.08
2018-11-13T01:06:01.739Z,7.65
2018-11-13T01:08:29.778Z,7.85
2018-11-13T01:10:58.362Z,7.92
2018-11-13T01:13:27.457Z,7.80
2018-11-13T01:15:54.994Z,7.00
2018-11-13T01:18:23.861Z,7.28
2018-11-13T01:20:50.970Z,7.15
2018-11-13T01:23:18.772Z,7.08
2018-11-13T01:25:46.982Z,8.50
2018-11-13T01:28:16.426Z,7.62
2018-11-13T01:30:44.505Z,8.18
2018-11-13T01:33:11.717Z,8.25
2018-11-13T01:35:40.197Z,8.63
2018-11-13T01:38:09.312Z,7.72
2018-11-13T01:40:37.831Z,7.90
2018-11-13T01:43:05.144Z,7.72
2018-11-13T01:45:33.129Z,7.10
2018-11-13T01:48:02.122Z,8.00
2018-11-13T01:50:30.894Z,8.20
2018-11-13T01:52:59.839Z,7.15
2018-11-13T01:55:28.112Z,7.30
2018-11-13T01:57:55.597Z,8.00
2018-11-13T02:00:24.022Z,7.50
2018-11-13T02:02:54.185Z,6.55
2018-11-13T02:05:24.203Z,8.03
2018-11-13T02:07:52.737Z,7.87
2018-11-13T02:10:20.145Z,7.00
2018-11-13T02:12:49.615Z,8.25
2018-11-13T02:15:17.095Z,7.70
2018-11-13T02:17:44.300Z,7.95
2018-11-13T02:20:16.443Z,7.67
2018-11-13T02:22:44.345Z,7.67
2018-11-13T02:25:14.163Z,7.05
2018-11-13T02:27:41.904Z,7.47
2018-11-13T02:30:14.373Z,7.30
2018-11-13T02:32:42.667Z,7.35
2018-11-13T02:35:10.634Z,7.78
2018-11-13T02:37:37.864Z,7.08
2018-11-13T02:40:06.157Z,7.75
2018-11-13T02:42:36.261Z,6.78
2018-11-13T02:45:08.901Z,6.85
2018-11-13T02:47:37.504Z,6.87
2018-11-13T02:50:06.299Z,6.35
2018-11-13T02:52:35.447Z,5.95
2018-11-13T02:55:03.667Z,6.60
2018-11-13T02:57:32.622Z,8.00
2018-11-13T03:00:01.641Z,7.47
2018-11-13T03:02:30.481Z,7.05
2018-11-13T03:04:57.613Z,7.67
2018-11-13T03:07:25.595Z,6.85
2018-11-13T03:09:52.776Z,6.70
2018-11-13T03:12:19.896Z,7.25
2018-11-13T03:14:48.067Z,8.28
2018-11-13T03:17:15.660Z,7.03
2018-11-13T03:19:45.026Z,8.33
2018-11-13T03:22:12.193Z,7.50
2018-11-13T03:24:41.161Z,6.90
2018-11-13T03:27:08.788Z,7.78
2018-11-13T03:29:38.091Z,7.65
2018-11-13T03:32:05.787Z,7.55
2018-11-13T03:34:33.869Z,9.75
2018-11-13T03:37:01.462Z,7.50
2018-11-13T03:39:28.554Z,7.67
2018-11-13T03:41:57.052Z,7.60
2018-11-13T03:44:24.878Z,7.55
2018-11-13T03:46:52.182Z,7.45
2018-11-13T03:49:20.514Z,7.80
2018-11-13T03:51:48.118Z,8.30
2018-11-13T03:54:15.717Z,9.10
2018-11-13T03:56:43.866Z,8.48
2018-11-13T03:59:11.080Z,8.95
2018-11-13T04:01:38.352Z,8.85
2018-11-13T04:04:11.835Z,8.68
2018-11-13T04:06:39.254Z,8.88
2018-11-13T04:09:08.175Z,8.18
2018-11-13T04:11:35.294Z,9.08
2018-11-13T04:14:02.494Z,9.40
2018-11-13T04:16:30.421Z,9.25
2018-11-13T04:18:58.274Z,9.30
2018-11-13T04:21:25.606Z,9.38
2018-11-13T04:23:52.742Z,9.48
2018-11-13T04:26:20.526Z,9.60
2018-11-13T04:28:47.684Z,9.83
2018-11-13T04:31:15.680Z,9.68
2018-11-13T04:33:42.857Z,9.30
2018-11-13T04:36:10.023Z,8.85
2018-11-13T04:38:37.758Z,9.00
2018-11-13T04:41:06.304Z,8.68
2018-11-13T04:43:33.718Z,10.13
2018-11-13T04:46:01.818Z,9.95
2018-11-13T04:48:29.269Z,9.43
2018-11-13T04:50:56.486Z,9.28
2018-11-13T04:53:24.053Z,9.53
2018-11-13T04:55:51.569Z,8.67
2018-11-13T04:58:19.388Z,9.83
2018-11-13T05:00:47.350Z,9.77
2018-11-13T05:03:14.602Z,9.77
2018-11-13T05:05:44.068Z,9.48
2018-11-13T05:08:13.518Z,9.18
2018-11-13T05:10:41.330Z,9.17
2018-11-13T05:13:09.206Z,9.83
2018-11-13T05:15:37.345Z,10.10
2018-11-13T05:18:05.691Z,10.25
2018-11-13T05:20:35.314Z,9.18
2018-11-13T05:23:03.579Z,9.23
2018-11-13T05:25:30.710Z,9.15
2018-11-13T05:27:58.968Z,10.68
2018-11-13T05:30:26.159Z,9.78
2018-11-13T05:32:54.773Z,10.05
2018-11-13T05:35:23.474Z,10.70
2018-11-13T05:40:26.426Z,11.05
2018-11-13T05:42:53.735Z,11.12
2018-11-13T05:45:22.755Z,10.65
2018-11-13T05:47:51.326Z,10.53
2018-11-13T05:50:21.332Z,10.32
2018-11-13T05:52:50.633Z,10.88
2018-11-13T05:55:18.674Z,12.37
2018-11-13T05:57:46.349Z,12.05
2018-11-13T06:00:15.854Z,13.32
2018-11-13T06:02:43.385Z,15.32
2018-11-13T06:05:11.593Z,12.60
2018-11-13T06:07:39.977Z,11.97
2018-11-13T06:10:08.123Z,11.68
2018-11-13T06:12:35.448Z,13.40
2018-11-13T06:15:02.697Z,17.27
2018-11-13T06:17:30.705Z,15.15
2018-11-13T06:19:58.038Z,16.07
2018-11-13T06:22:25.600Z,12.87
2018-11-13T06:24:53.072Z,13.70
2018-11-13T06:27:20.419Z,11.78
2018-11-13T06:29:48.766Z,12.75
2018-11-13T06:32:16.152Z,13.28
2018-11-13T06:34:43.593Z,12.63
2018-11-13T06:37:11.115Z,12.45
2018-11-13T06:39:38.296Z,12.82
2018-11-13T06:42:06.022Z,12.82
2018-11-13T06:44:33.204Z,11.90
2018-11-13T06:47:00.866Z,13.95
2018-11-13T06:49:29.223Z,13.38
2018-11-13T06:51:56.651Z,13.80
2018-11-13T06:54:35.795Z,13.70
2018-11-13T06:57:04.673Z,14.03
2018-11-13T06:59:32.132Z,14.13
2018-11-13T07:01:59.665Z,15.23
2018-11-13T07:04:27.751Z,14.03
2018-11-13T07:06:55.033Z,14.17
2018-11-13T07:09:22.898Z,13.03
2018-11-13T07:11:50.062Z,14.00
2018-11-13T07:14:17.275Z,12.47
2018-11-13T07:16:45.121Z,14.10
2018-11-13T07:19:12.660Z,12.35
2018-11-13T07:21:40.088Z,12.07
2018-11-13T07:24:07.588Z,14.55
2018-11-13T07:26:34.995Z,14.78
2018-11-13T07:29:02.751Z,13.73
2018-11-13T07:31:30.147Z,13.08
2018-11-13T07:33:57.300Z,14.90
2018-11-13T07:36:24.446Z,15.58
2018-11-13T07:38:52.304Z,14.53
2018-11-13T07:41:19.796Z,15.72
2018-11-13T07:43:47.241Z,15.40
2018-11-13T07:46:14.661Z,14.50
2018-11-13T07:48:41.882Z,14.80
2018-11-13T07:51:09.596Z,14.73
2018-11-13T07:53:37.221Z,15.28
2018-11-13T07:56:05.056Z,15.40
2018-11-13T07:58:32.800Z,13.50
2018-11-13T08:01:00.225Z,13.68
2018-11-13T08:03:34.160Z,14.87
2018-11-13T08:06:03.061Z,14.65
2018-11-13T08:08:30.315Z,14.65
2018-11-13T08:10:58.306Z,13.98
2018-11-13T08:13:26.089Z,14.23
2018-11-13T08:15:54.644Z,14.87
2018-11-13T08:18:23.938Z,14.83
2018-11-13T08:20:51.076Z,14.60
2018-11-13T08:23:18.310Z,14.58
2018-11-13T08:25:45.532Z,15.13
2018-11-13T08:28:12.861Z,16.77
2018-11-13T08:30:40.068Z,13.15
2018-11-13T08:35:41.223Z,14.65
2018-11-13T08:38:08.297Z,15.65
2018-11-13T08:40:35.512Z,14.73
2018-11-13T08:43:02.640Z,14.87
2018-11-13T08:45:29.976Z,13.08
2018-11-13T08:47:57.455Z,14.35
2018-11-13T08:50:24.758Z,14.03
2018-11-13T08:52:51.903Z,14.40
2018-11-13T08:55:19.774Z,14.10
2018-11-13T08:57:47.271Z,14.78
2018-11-13T09:00:15.998Z,13.20
2018-11-13T09:02:43.718Z,14.03
2018-11-13T09:05:11.098Z,13.93
2018-11-13T09:07:39.534Z,13.98
2018-11-13T09:10:08.367Z,13.95
2018-11-13T09:12:36.314Z,13.90
2018-11-13T09:15:05.125Z,14.90
2018-11-13T09:17:32.658Z,14.58
2018-11-13T09:19:59.913Z,13.98
2018-11-13T09:22:27.630Z,13.73
2018-11-13T09:24:56.722Z,12.35
2018-11-13T09:27:24.159Z,12.75
2018-11-13T09:29:51.596Z,11.55
2018-11-13T09:32:18.996Z,12.10
2018-11-13T09:34:46.175Z,11.63
2018-11-13T09:37:14.262Z,12.25
2018-11-13T09:39:42.261Z,11.65
2018-11-13T09:42:09.460Z,12.28
2018-11-13T09:44:36.607Z,11.88
2018-11-13T09:47:03.921Z,14.15
2018-11-13T09:49:31.296Z,12.80
2018-11-13T09:52:00.285Z,14.25
2018-11-13T09:54:27.948Z,13.20
2018-11-13T09:56:55.385Z,12.85
2018-11-13T09:59:22.535Z,11.80
2018-11-13T10:01:50.435Z,12.70
2018-11-13T10:04:17.977Z,14.53
2018-11-13T10:06:45.405Z,11.43
2018-11-13T10:09:13.696Z,11.85
2018-11-13T10:11:42.984Z,11.20
2018-11-13T10:14:11.037Z,12.40
2018-11-13T10:16:39.608Z,12.40
2018-11-13T10:19:07.840Z,11.18
2018-11-13T10:21:36.010Z,11.65
2018-11-13T10:24:04.509Z,13.05
2018-11-13T10:26:32.509Z,11.48
2018-11-13T10:28:59.722Z,11.20
2018-11-13T10:31:27.433Z,10.68
2018-11-13T10:33:55.264Z,11.33
2018-11-13T10:36:22.856Z,11.18
2018-11-13T10:38:50.317Z,10.45
2018-11-13T10:41:17.545Z,12.47
2018-11-13T10:43:44.869Z,11.15
2018-11-13T10:46:12.162Z,10.98
2018-11-13T10:48:39.417Z,11.20
2018-11-13T10:51:06.751Z,9.88
2018-11-13T10:53:33.844Z,9.73
2018-11-13T10:56:01.706Z,9.48
2018-11-13T10:58:29.115Z,9.88
2018-11-13T11:01:02.222Z,8.55
2018-11-13T11:03:37.050Z,8.93
2018-11-13T11:06:04.506Z,9.48
2018-11-13T11:08:32.072Z,10.20
2018-11-13T11:10:59.620Z,9.80
2018-11-13T11:13:26.945Z,9.50
2018-11-13T11:15:54.357Z,9.60
2018-11-13T11:18:21.676Z,10.15
2018-11-13T11:20:48.971Z,11.20
2018-11-13T11:23:16.506Z,10.20
2018-11-13T11:25:44.207Z,11.43
2018-11-13T11:28:11.588Z,14.13
2018-11-13T11:30:39.016Z,13.05
2018-11-13T11:33:06.344Z,12.28
2018-11-13T11:35:33.646Z,12.13
2018-11-13T11:38:01.103Z,12.65
2018-11-13T11:40:29.102Z,13.25
2018-11-13T11:42:56.334Z,12.98
2018-11-13T11:45:23.664Z,13.25
2018-11-13T11:47:51.200Z,12.63
2018-11-13T11:50:18.623Z,13.00
2018-11-13T11:52:46.078Z,13.22
2018-11-13T11:55:13.615Z,13.50
2018-11-13T11:57:40.811Z,13.05
2018-11-13T12:00:11.704Z,13.93
2018-11-13T12:02:38.995Z,12.23
2018-11-13T12:05:07.455Z,13.45
2018-11-13T12:07:35.332Z,12.78
2018-11-13T12:10:03.887Z,13.30
2018-11-13T12:12:31.356Z,13.70
2018-11-13T12:14:59.004Z,14.95
2018-11-13T12:17:26.183Z,14.30
2018-11-13T12:19:53.416Z,14.68
2018-11-13T12:22:20.709Z,13.85
2018-11-13T12:24:48.085Z,14.15
2018-11-13T12:27:15.444Z,14.68
2018-11-13T12:29:44.715Z,15.75
2018-11-13T12:32:12.026Z,15.90
2018-11-13T12:34:39.518Z,16.00
2018-11-13T12:37:06.871Z,15.60
2018-11-13T12:39:34.119Z,12.78
2018-11-13T12:42:01.982Z,14.03
2018-11-13T12:44:29.358Z,13.38
2018-11-13T12:46:56.626Z,14.20
2018-11-13T12:49:23.823Z,13.83
2018-11-13T12:51:57.437Z,13.95
2018-11-13T12:54:24.703Z,13.20
2018-11-13T12:56:52.170Z,13.40
2018-11-13T12:59:19.395Z,13.53
2018-11-13T13:01:46.755Z,15.00
2018-11-13T13:04:14.617Z,12.98
2018-11-13T13:06:42.279Z,13.95
2018-11-13T13:09:10.207Z,12.85
2018-11-13T13:11:37.539Z,12.28
2018-11-13T13:14:10.639Z,12.40
2018-11-13T13:16:37.795Z,12.25
2018-11-13T13:19:05.347Z,12.78
2018-11-13T13:21:32.689Z,12.23
2018-11-13T13:24:00.075Z,12.30
2018-11-13T13:26:27.432Z,12.88
2018-11-13T13:28:55.292Z,12.68
2018-11-13T13:31:22.535Z,13.00
2018-11-13T13:33:49.842Z,10.98
2018-11-13T13:36:17.095Z,12.30
2018-11-13T13:38:44.301Z,12.28
2018-11-13T13:41:12.228Z,13.13
2018-11-13T13:43:39.897Z,11.25
2018-11-13T13:46:07.152Z,11.85
2018-11-13T13:48:34.511Z,11.10
2018-11-13T13:51:02.003Z,11.83
2018-11-13T13:53:29.229Z,11.68
2018-11-13T13:55:57.130Z,11.15
2018-11-13T13:58:25.046Z,11.85
2018-11-13T14:00:52.654Z,11.88
2018-11-13T14:03:20.091Z,12.98
2018-11-13T14:05:48.399Z,11.95
2018-11-13T14:08:16.526Z,11.57
2018-11-13T14:10:44.855Z,9.85
2018-11-13T14:13:13.848Z,11.18
2018-11-13T14:15:42.309Z,9.78
2018-11-13T14:18:13.305Z,11.18
2018-11-13T14:20:41.300Z,10.40
2018-11-13T14:23:12.620Z,10.55
2018-11-13T14:25:43.226Z,9.30
2018-11-13T14:28:10.415Z,10.48
2018-11-13T14:30:40.776Z,11.65
2018-11-13T14:33:12.962Z,9.90
2018-11-13T14:35:40.908Z,9.63
2018-11-13T14:38:07.964Z,9.80
2018-11-13T14:40:38.660Z,10.15
2018-11-13T14:43:05.940Z,9.45
2018-11-13T14:45:33.273Z,8.50
2018-11-13T14:48:01.101Z,9.13
2018-11-13T14:50:29.489Z,9.40
2018-11-13T14:52:57.225Z,9.80
2018-11-13T14:55:26.845Z,9.33
2018-11-13T14:57:54.889Z,9.70
2018-11-13T15:00:23.985Z,9.45
2018-11-13T15:02:51.832Z,8.43
2018-11-13T15:05:19.912Z,9.68
2018-11-13T15:07:48.414Z,7.87
2018-11-13T15:10:22.791Z,7.47
2018-11-13T15:12:50.703Z,9.30
2018-11-13T15:15:18.166Z,8.13
2018-11-13T15:17:45.370Z,7.03
2018-11-13T15:20:15.180Z,6.55
2018-11-13T15:22:43.635Z,7.45
2018-11-13T15:25:13.310Z,8.10
2018-11-13T15:27:40.999Z,8.83
2018-11-13T15:30:10.180Z,9.73
2018-11-13T15:32:37.674Z,9.03
2018-11-13T15:35:06.012Z,9.38
2018-11-13T15:37:33.155Z,11.15
2018-11-13T15:40:00.321Z,10.88
2018-11-13T15:42:28.248Z,21.97
2018-11-13T15:44:55.563Z,8.03
2018-11-13T15:47:22.694Z,7.12
2018-11-13T15:49:51.260Z,6.75
2018-11-13T15:52:19.267Z,6.83
2018-11-13T15:54:46.695Z,6.58
2018-11-13T15:57:16.630Z,6.72
2018-11-13T15:59:44.603Z,6.45
2018-11-13T16:02:11.866Z,5.10
2018-11-13T16:04:39.556Z,5.20
2018-11-13T16:07:06.840Z,5.37
2018-11-13T16:09:34.045Z,6.30
2018-11-13T16:12:02.762Z,4.50
2018-11-13T16:14:30.179Z,4.30
2018-11-13T16:16:57.539Z,5.05
2018-11-13T16:19:25.506Z,5.35
2018-11-13T16:21:53.404Z,3.80
2018-11-13T16:24:20.827Z,3.95
2018-11-13T16:26:48.359Z,4.12
2018-11-13T16:29:15.784Z,3.90
2018-11-13T16:31:43.325Z,3.85
2018-11-13T16:34:10.964Z,4.30
2018-11-13T16:36:38.907Z,4.22
2018-11-13T16:39:10.413Z,3.60
2018-11-13T16:41:37.722Z,4.50
2018-11-13T16:44:04.922Z,4.97
2018-11-13T16:46:33.690Z,4.22
2018-11-13T16:49:00.930Z,4.37
2018-11-13T16:51:28.637Z,4.83
2018-11-13T16:54:01.899Z,3.65
2018-11-13T16:56:29.315Z,4.23
2018-11-13T16:58:58.457Z,4.40
2018-11-13T17:01:25.924Z,3.22
2018-11-13T17:03:53.043Z,3.50
2018-11-13T17:06:20.862Z,3.33
2018-11-13T17:09:51.232Z,3.52
2018-11-13T17:12:19.070Z,4.22
2018-11-13T17:14:46.384Z,2.90
2018-11-13T17:17:13.580Z,2.40
2018-11-13T17:19:40.893Z,3.50
2018-11-13T17:22:08.034Z,2.90
2018-11-13T17:24:35.953Z,2.80
2018-11-13T17:27:03.464Z,2.90
2018-11-13T17:29:30.816Z,2.00
2018-11-13T17:31:58.069Z,2.42
2018-11-13T17:34:25.699Z,2.55
2018-11-13T17:36:54.094Z,1.70
2018-11-13T17:39:21.408Z,1.65
2018-11-13T17:41:48.604Z,2.22
2018-11-13T17:44:16.412Z,2.23
2018-11-13T17:46:43.847Z,1.90
2018-11-13T17:49:11.252Z,2.20
2018-11-13T17:51:38.827Z,2.37
2018-11-13T17:54:06.186Z,1.55
2018-11-13T17:56:33.726Z,1.72
2018-11-13T17:59:00.994Z,1.67
2018-11-13T18:01:28.703Z,1.72
2018-11-13T18:03:57.669Z,1.60
2018-11-13T18:06:25.134Z,1.80
2018-11-13T18:08:52.662Z,1.62
2018-11-13T18:11:19.938Z,2.30
2018-11-13T18:13:47.516Z,1.90
2018-11-13T18:16:15.007Z,1.77
2018-11-13T18:18:42.143Z,1.52
2018-11-13T18:21:09.871Z,1.60
2018-11-13T18:23:37.446Z,1.40
2018-11-13T18:26:04.798Z,1.67
2018-11-13T18:28:32.389Z,1.50
2018-11-13T18:31:00.389Z,1.80
2018-11-13T18:33:27.724Z,1.70
2018-11-13T18:35:55.420Z,1.60
2018-11-13T18:38:22.942Z,1.70
2018-11-13T18:40:50.372Z,1.70
2018-11-13T18:43:17.765Z,2.17
2018-11-13T18:45:45.243Z,1.90
2018-11-13T18:48:12.970Z,1.60
2018-11-13T18:50:42.691Z,2.10
2018-11-13T18:53:25.752Z,1.90
2018-11-13T18:55:54.776Z,2.10
2018-11-13T18:58:22.319Z,2.10
2018-11-13T19:00:51.323Z,2.10
2018-11-13T19:03:20.285Z,2.53
2018-11-13T19:05:47.848Z,1.93
2018-11-13T19:08:15.376Z,2.10
2018-11-13T19:10:44.226Z,2.30
2018-11-13T19:13:13.410Z,2.13
2018-11-13T19:15:43.323Z,2.47
2018-11-13T19:19:40.517Z,2.50
2018-11-13T19:22:08.426Z,2.58
2018-11-13T19:24:36.649Z,2.72
2018-11-13T19:27:05.382Z,3.60
2018-11-13T19:29:32.688Z,3.50
2018-11-13T19:32:00.731Z,3.53
2018-11-13T19:34:28.210Z,4.47
2018-11-13T19:36:55.744Z,5.13
2018-11-13T19:39:23.037Z,4.93
2018-11-13T19:41:50.644Z,5.40
2018-11-13T19:44:18.111Z,4.10
2018-11-13T19:46:46.302Z,4.53
2018-11-13T19:49:14.148Z,4.23
2018-11-13T19:51:42.038Z,4.30
2018-11-13T19:54:09.632Z,4.60
2018-11-13T19:56:37.089Z,4.73
2018-11-13T19:59:05.094Z,4.43
2018-11-13T20:01:36.246Z,4.40
2018-11-13T20:04:06.152Z,5.20
2018-11-13T20:06:33.842Z,5.00
2018-11-13T20:09:08.224Z,4.97
2018-11-13T20:11:38.516Z,5.13
2018-11-13T20:14:08.455Z,4.97
2018-11-13T20:16:37.091Z,5.43
2018-11-13T20:19:05.309Z,5.63
2018-11-13T20:21:33.368Z,5.70
2018-11-13T20:24:02.033Z,5.20
2018-11-13T20:26:30.655Z,5.60
2018-11-13T20:28:58.604Z,5.83
2018-11-13T20:31:27.339Z,5.53
2018-11-13T20:33:55.320Z,5.93
2018-11-13T20:36:23.636Z,6.00
2018-11-13T20:38:53.314Z,4.73
2018-11-13T20:41:23.328Z,5.77
2018-11-13T20:43:52.553Z,6.07
2018-11-13T20:46:21.499Z,5.63
2018-11-13T20:48:50.294Z,5.80
2018-11-13T20:51:19.687Z,6.10
2018-11-13T20:53:48.200Z,6.27
2018-11-13T20:56:17.611Z,5.67
2018-11-13T20:58:46.997Z,6.00
2018-11-13T21:01:15.869Z,6.53
2018-11-13T21:03:43.952Z,5.97
2018-11-13T21:06:12.424Z,7.43
2018-11-13T21:08:40.123Z,5.70
2018-11-13T21:11:08.308Z,5.90
2018-11-13T21:13:35.774Z,6.03
2018-11-13T21:16:03.496Z,6.70
2018-11-13T21:18:30.723Z,6.03
2018-11-13T21:20:58.276Z,6.83
2018-11-13T21:23:27.052Z,6.43
2018-11-13T21:25:54.991Z,6.77
2018-11-13T21:28:22.935Z,6.83
2018-11-13T21:30:50.906Z,5.73
2018-11-13T21:33:18.550Z,7.03
2018-11-13T21:35:47.569Z,6.80
2018-11-13T21:38:15.069Z,6.50
2018-11-13T21:40:43.510Z,6.10
2018-11-13T21:43:12.302Z,6.93
2018-11-13T21:45:40.294Z,7.80
2018-11-13T21:48:08.499Z,7.77
2018-11-13T21:50:36.891Z,7.47
2018-11-13T21:53:04.993Z,7.10
2018-11-13T21:55:34.215Z,7.43
2018-11-13T21:58:02.955Z,7.40
2018-11-13T22:00:34.534Z,7.67
2018-11-13T22:04:05.930Z,6.90
2018-11-13T22:06:35.499Z,7.50
2018-11-13T22:09:05.422Z,7.50
2018-11-13T22:11:34.871Z,6.80
2018-11-13T22:14:03.775Z,6.80
2018-11-13T22:16:31.947Z,7.07
2018-11-13T22:19:02.570Z,7.40
2018-11-13T22:21:31.942Z,6.73
2018-11-13T22:24:01.725Z,7.17
2018-11-13T22:26:30.565Z,7.63
2018-11-13T22:28:58.663Z,7.03
2018-11-13T22:31:27.430Z,7.00
2018-11-13T22:33:55.112Z,7.20
2018-11-13T22:36:24.634Z,7.27
2018-11-13T22:38:53.032Z,7.67
2018-11-13T22:41:23.217Z,7.27
2018-11-13T22:43:52.423Z,7.37
2018-11-13T22:46:20.686Z,7.40
2018-11-13T22:48:49.180Z,8.07
2018-11-13T22:51:17.620Z,7.53
2018-11-13T22:53:47.724Z,7.60
2018-11-13T22:56:16.794Z,7.27
2018-11-13T22:58:58.196Z,7.67
2018-11-13T23:01:26.901Z,6.90
2018-11-13T23:03:55.215Z,7.80
2018-11-13T23:06:25.543Z,7.50
2018-11-13T23:08:57.055Z,7.70
2018-11-13T23:11:24.841Z,6.77
2018-11-13T23:13:52.169Z,7.70
2018-11-13T23:16:20.310Z,7.43
2018-11-13T23:18:51.758Z,7.50
2018-11-13T23:21:25.439Z,7.20
2018-11-13T23:23:54.511Z,7.47
2018-11-13T23:26:22.780Z,7.33
2018-11-13T23:28:51.314Z,7.47
2018-11-13T23:31:19.847Z,7.00
2018-11-13T23:33:47.323Z,7.40
2018-11-13T23:36:15.630Z,7.93
2018-11-13T23:38:46.119Z,7.43
2018-11-13T23:41:15.958Z,7.13
2018-11-13T23:43:43.990Z,7.13
2018-11-13T23:46:12.053Z,6.50
2018-11-13T23:48:40.657Z,6.10
2018-11-13T23:51:08.293Z,7.63
2018-11-13T23:53:37.432Z,7.57
2018-11-13T23:56:05.261Z,6.72
2018-11-13T23:58:34.031Z,6.40
